Terminal Aerodrome Forecast
Issued by NWS

Current Version | Previous Version | Text Only | Print | Product List | Glossary On
Versions: 1 2 3 4 5 6 7 8 9 10 11 12 13 14 15 16 17 18
000
FTUS42 TJSJ 202300 RRA
TAFIST
TAF
TIST 202341Z 2100/2124 12010KT P6SM FEW025
     FM211200 13013KT P6SM SCT030
     FM212300 10008KT P6SM FEW025=

USA.gov is the U.S. government's official web portal to all federal, state and local government web resources and services.